createdAt,value
2019-02-27T00:01:43.036Z,-0.70
2019-02-27T00:04:11.965Z,-0.60
2019-02-27T00:06:40.788Z,-1.00
2019-02-27T00:09:11.096Z,-1.00
2019-02-27T00:11:39.866Z,-1.00
2019-02-27T00:14:08.692Z,-1.20
2019-02-27T00:16:37.459Z,-1.20
2019-02-27T00:19:06.556Z,-0.70
2019-02-27T00:21:35.316Z,-1.20
2019-02-27T00:24:04.225Z,-0.70
2019-02-27T00:26:32.992Z,-0.70
2019-02-27T00:29:01.759Z,-1.20
2019-02-27T00:31:30.521Z,-1.20
2019-02-27T00:33:59.926Z,-1.30
2019-02-27T00:36:29.312Z,-0.90
2019-02-27T00:38:58.549Z,-1.00
2019-02-27T00:41:27.388Z,-1.50
2019-02-27T00:44:01.064Z,-1.30
2019-02-27T00:46:29.068Z,-1.20
2019-02-27T00:48:59.303Z,-1.50
2019-02-27T00:51:28.324Z,-1.70
2019-02-27T00:53:58.439Z,-1.70
2019-02-27T00:56:27.566Z,-1.70
2019-02-27T00:58:59.959Z,-1.70
2019-02-27T01:01:26.817Z,-1.70
2019-02-27T01:03:59.251Z,-1.80
2019-02-27T01:06:26.077Z,-1.70
2019-02-27T01:08:54.908Z,-1.70
2019-02-27T01:11:23.740Z,-1.70
2019-02-27T01:13:52.508Z,-1.70
2019-02-27T01:16:21.271Z,-1.70
2019-02-27T01:18:50.971Z,-1.70
2019-02-27T01:21:20.116Z,-1.50
2019-02-27T01:23:49.011Z,-1.80
2019-02-27T01:26:17.813Z,-1.70
2019-02-27T01:28:46.585Z,-1.80
2019-02-27T01:31:15.371Z,-1.70
2019-02-27T01:33:44.196Z,-1.80
2019-02-27T01:36:12.968Z,-1.70
2019-02-27T01:38:41.792Z,-1.70
2019-02-27T01:41:10.588Z,-1.70
2019-02-27T01:43:39.887Z,-1.70
2019-02-27T01:46:09.505Z,-1.70
2019-02-27T01:48:42.766Z,-1.90
2019-02-27T01:51:08.896Z,-1.90
2019-02-27T01:53:37.925Z,-1.90
2019-02-27T01:56:08.229Z,-1.90
2019-02-27T01:58:36.980Z,-2.00
2019-02-27T02:01:05.925Z,-2.00
2019-02-27T02:03:34.686Z,-1.80
2019-02-27T02:06:04.203Z,-1.70
2019-02-27T02:08:32.960Z,-1.90
2019-02-27T02:11:02.148Z,-1.90
2019-02-27T02:13:53.984Z,-2.00
2019-02-27T02:16:48.817Z,-1.90
2019-02-27T02:19:53.988Z,-1.90
2019-02-27T02:22:38.931Z,-2.00
2019-02-27T02:25:52.533Z,-1.80
2019-02-27T02:28:52.590Z,-1.70
2019-02-27T02:31:42.485Z,-1.90
2019-02-27T02:34:45.497Z,-2.00
2019-02-27T02:37:54.177Z,-2.00
2019-02-27T02:41:07.937Z,-2.10
2019-02-27T02:44:03.744Z,-2.20
2019-02-27T02:46:45.474Z,-2.20
2019-02-27T02:49:18.924Z,-2.20
2019-02-27T02:52:15.018Z,-2.30
2019-02-27T02:55:16.440Z,-2.50
2019-02-27T02:57:58.794Z,-2.00
2019-02-27T03:00:39.356Z,-2.30
2019-02-27T03:03:44.793Z,-2.10
2019-02-27T03:06:52.295Z,-2.20
2019-02-27T03:09:59.721Z,-2.00
2019-02-27T03:13:31.276Z,-2.20
2019-02-27T03:16:21.009Z,-2.40
2019-02-27T03:19:19.107Z,-2.40
2019-02-27T03:22:19.497Z,-2.40
2019-02-27T03:25:19.641Z,-2.40
2019-02-27T03:28:12.405Z,-2.40
2019-02-27T03:31:19.266Z,-2.40
2019-02-27T03:34:34.735Z,-2.40
2019-02-27T03:37:27.861Z,-2.30
2019-02-27T03:40:15.048Z,-2.60
2019-02-27T03:43:10.014Z,-2.50
2019-02-27T03:46:08.409Z,-2.70
2019-02-27T03:49:21.248Z,-2.70
2019-02-27T03:52:40.424Z,-2.70
2019-02-27T03:55:41.071Z,-2.70
2019-02-27T03:58:21.893Z,-2.60
2019-02-27T04:01:18.451Z,-2.50
2019-02-27T04:04:19.402Z,-2.30
2019-02-27T04:07:37.411Z,-2.40
2019-02-27T04:10:06.256Z,-2.40
2019-02-27T04:12:35.016Z,-2.30
2019-02-27T04:15:04.637Z,-2.70
2019-02-27T04:17:32.100Z,-2.50
2019-02-27T04:20:01.001Z,-2.40
2019-02-27T04:22:29.763Z,-2.50
2019-02-27T04:24:58.549Z,-2.70
2019-02-27T04:27:27.306Z,-2.80
2019-02-27T04:29:56.084Z,-2.70
2019-02-27T04:32:24.853Z,-2.70
2019-02-27T04:34:53.613Z,-2.50
2019-02-27T04:37:22.360Z,-2.80
2019-02-27T04:39:51.129Z,-2.80
2019-02-27T04:42:19.880Z,-2.70
2019-02-27T04:44:48.644Z,-2.60
2019-02-27T04:47:17.404Z,-2.60
2019-02-27T04:49:46.174Z,-2.80
2019-02-27T04:52:14.927Z,-2.80
2019-02-27T04:54:43.699Z,-2.90
2019-02-27T04:57:12.457Z,-2.90
2019-02-27T04:59:41.228Z,-2.70
2019-02-27T05:02:12.082Z,-2.80
2019-02-27T05:04:40.568Z,-2.70
2019-02-27T05:07:09.342Z,-2.60
2019-02-27T05:09:38.184Z,-2.60
2019-02-27T05:12:06.947Z,-2.60
2019-02-27T05:14:35.797Z,-2.60
2019-02-27T05:17:04.544Z,-2.60
2019-02-27T05:19:36.806Z,-2.50
2019-02-27T05:22:03.804Z,-2.60
2019-02-27T05:24:32.632Z,-2.60
2019-02-27T05:27:01.404Z,-2.60
2019-02-27T05:29:38.381Z,-2.60
2019-02-27T05:32:07.145Z,-2.60
2019-02-27T05:34:35.908Z,-2.50
2019-02-27T05:37:05.311Z,-2.60
2019-02-27T05:39:34.780Z,-2.80
2019-02-27T05:42:15.686Z,-2.80
2019-02-27T05:44:55.509Z,-2.80
2019-02-27T05:47:21.210Z,-2.80
2019-02-27T05:49:49.977Z,-2.80
2019-02-27T05:52:18.733Z,-2.80
2019-02-27T05:54:50.505Z,-2.80
2019-02-27T05:57:21.049Z,-2.80
2019-02-27T05:59:49.745Z,-2.80
2019-02-27T06:02:19.464Z,-2.80
2019-02-27T06:04:48.225Z,-2.80
2019-02-27T06:07:19.024Z,-2.90
2019-02-27T06:09:48.984Z,-2.80
2019-02-27T06:12:17.919Z,-2.80
2019-02-27T06:14:54.797Z,-2.90
2019-02-27T06:17:23.113Z,-2.70
2019-02-27T06:19:52.871Z,-2.70
2019-02-27T06:22:21.628Z,-2.70
2019-02-27T06:24:50.397Z,-2.60
2019-02-27T06:27:19.161Z,-2.40
2019-02-27T06:29:47.938Z,-2.30
2019-02-27T06:32:18.996Z,-2.30
2019-02-27T06:34:47.760Z,-2.40
2019-02-27T06:37:16.513Z,-2.50
2019-02-27T06:39:45.286Z,-2.40
2019-02-27T06:42:14.214Z,-2.40
2019-02-27T06:44:43.080Z,-2.40
2019-02-27T06:47:11.862Z,-2.40
2019-02-27T06:49:40.624Z,-2.40
2019-02-27T06:52:15.732Z,-2.30
2019-02-27T06:54:44.495Z,-2.10
2019-02-27T06:57:13.284Z,-1.80
2019-02-27T06:59:42.113Z,-1.50
2019-02-27T07:02:10.899Z,-1.30
2019-02-27T07:04:40.271Z,-1.20
2019-02-27T07:07:12.212Z,-0.70
2019-02-27T07:09:43.236Z,-0.50
2019-02-27T07:12:11.450Z,-0.30
2019-02-27T07:14:40.205Z,-0.50
2019-02-27T07:17:08.965Z,-0.10
2019-02-27T07:19:37.713Z,0.00
2019-02-27T07:22:09.229Z,0.40
2019-02-27T07:24:36.964Z,0.30
2019-02-27T07:27:05.761Z,0.60
2019-02-27T07:29:34.516Z,0.80
2019-02-27T07:32:03.294Z,0.80
2019-02-27T07:34:32.040Z,1.00
2019-02-27T07:37:00.801Z,1.20
2019-02-27T07:39:32.632Z,1.20
2019-02-27T07:42:00.042Z,1.60
2019-02-27T07:44:28.789Z,1.80
2019-02-27T07:47:00.613Z,2.00
2019-02-27T07:49:30.952Z,2.30
2019-02-27T07:51:59.908Z,2.70
2019-02-27T07:54:37.665Z,2.70
2019-02-27T07:57:14.906Z,3.00
2019-02-27T07:59:49.636Z,3.40
2019-02-27T08:02:18.631Z,3.30
2019-02-27T08:04:47.458Z,3.50
2019-02-27T08:07:22.136Z,3.80
2019-02-27T08:09:51.054Z,4.30
2019-02-27T08:12:20.685Z,4.70
2019-02-27T08:14:49.579Z,4.60
2019-02-27T08:17:18.386Z,4.90
2019-02-27T08:19:47.201Z,4.90
2019-02-27T08:22:16.086Z,5.10
2019-02-27T08:24:45.021Z,5.20
2019-02-27T08:27:13.904Z,5.50
2019-02-27T08:29:42.774Z,5.60
2019-02-27T08:32:11.598Z,5.90
2019-02-27T08:34:40.385Z,6.20
2019-02-27T08:37:09.182Z,6.30
2019-02-27T08:39:37.973Z,6.70
2019-02-27T08:42:12.582Z,7.00
2019-02-27T08:44:42.996Z,6.90
2019-02-27T08:47:11.969Z,7.50
2019-02-27T08:49:40.802Z,7.40
2019-02-27T08:52:09.597Z,7.90
2019-02-27T08:54:38.454Z,7.70
2019-02-27T08:57:07.893Z,8.20
2019-02-27T08:59:39.656Z,8.30
2019-02-27T09:02:08.813Z,8.40
2019-02-27T09:04:37.740Z,8.60
2019-02-27T09:07:06.647Z,8.80
2019-02-27T09:09:36.217Z,9.10
2019-02-27T09:12:05.437Z,9.40
2019-02-27T09:14:34.344Z,9.70
2019-02-27T09:17:03.356Z,9.90
2019-02-27T09:19:32.286Z,10.10
2019-02-27T09:22:02.417Z,10.50
2019-02-27T09:24:31.471Z,10.70
2019-02-27T09:27:00.429Z,10.90
2019-02-27T09:29:29.375Z,11.20
2019-02-27T09:31:58.374Z,11.30
2019-02-27T09:34:27.517Z,11.60
2019-02-27T09:36:56.439Z,11.70
2019-02-27T09:39:31.133Z,11.80
2019-02-27T09:41:59.015Z,12.00
2019-02-27T09:44:31.044Z,12.10
2019-02-27T09:46:59.937Z,12.10
2019-02-27T09:49:28.826Z,12.30
2019-02-27T09:51:57.683Z,12.40
2019-02-27T09:54:26.586Z,12.30
2019-02-27T09:56:55.516Z,12.30
2019-02-27T09:59:24.491Z,12.30
2019-02-27T10:01:53.414Z,12.40
2019-02-27T10:04:22.454Z,12.50
2019-02-27T10:06:51.447Z,12.60
2019-02-27T10:09:20.801Z,12.70
2019-02-27T10:11:52.204Z,12.70
2019-02-27T10:14:20.360Z,12.80
2019-02-27T10:16:49.339Z,12.90
2019-02-27T10:19:18.283Z,12.90
2019-02-27T10:21:47.610Z,12.90
2019-02-27T10:24:16.673Z,13.00
2019-02-27T10:26:45.527Z,13.10
2019-02-27T10:29:14.518Z,13.20
2019-02-27T10:31:43.531Z,13.20
2019-02-27T10:34:14.574Z,13.20
2019-02-27T10:36:43.043Z,13.30
2019-02-27T10:39:12.059Z,13.30
2019-02-27T10:41:41.000Z,13.40
2019-02-27T10:44:09.968Z,13.40
2019-02-27T10:46:38.915Z,13.50
2019-02-27T10:49:07.992Z,13.60
2019-02-27T10:51:36.957Z,13.60
2019-02-27T10:54:05.956Z,13.70
2019-02-27T10:56:34.887Z,13.70
2019-02-27T10:59:03.852Z,13.70
2019-02-27T11:01:36.122Z,13.80
2019-02-27T11:04:03.815Z,13.80
2019-02-27T11:06:34.256Z,13.90
2019-02-27T11:09:04.681Z,13.80
2019-02-27T11:11:34.170Z,13.80
2019-02-27T11:14:03.161Z,13.90
2019-02-27T11:16:32.133Z,13.90
2019-02-27T11:19:01.094Z,13.90
2019-02-27T11:21:30.098Z,13.80
2019-02-27T11:23:59.024Z,13.80
2019-02-27T11:26:28.006Z,13.80
2019-02-27T11:28:57.787Z,14.00
2019-02-27T11:31:27.040Z,14.00
2019-02-27T11:33:55.956Z,13.90
2019-02-27T11:36:24.906Z,14.00
2019-02-27T11:38:56.640Z,13.90
2019-02-27T11:41:24.529Z,14.00
2019-02-27T11:43:53.434Z,14.00
2019-02-27T11:46:22.290Z,14.00
2019-02-27T11:48:51.246Z,14.00
2019-02-27T11:51:20.860Z,14.00
2019-02-27T11:53:49.844Z,14.00
2019-02-27T11:56:20.307Z,14.10
2019-02-27T11:58:49.359Z,14.00
2019-02-27T12:01:21.821Z,14.10
2019-02-27T12:03:48.979Z,14.10
2019-02-27T12:06:17.927Z,14.00
2019-02-27T12:08:46.822Z,14.10
2019-02-27T12:11:15.751Z,14.10
2019-02-27T12:13:44.744Z,14.10
2019-02-27T12:16:19.624Z,14.00
2019-02-27T12:18:48.695Z,14.20
2019-02-27T12:21:17.650Z,14.20
2019-02-27T12:23:47.179Z,14.10
2019-02-27T12:26:16.077Z,14.00
2019-02-27T12:28:45.131Z,14.10
2019-02-27T12:31:14.442Z,14.10
2019-02-27T12:33:43.456Z,14.20
2019-02-27T12:36:12.550Z,14.20
2019-02-27T12:38:42.325Z,14.30
2019-02-27T12:41:12.524Z,14.30
2019-02-27T12:43:41.424Z,14.40
2019-02-27T12:46:10.434Z,14.40
2019-02-27T12:48:39.367Z,14.30
2019-02-27T12:51:08.290Z,14.40
2019-02-27T12:53:37.179Z,14.40
2019-02-27T12:56:07.854Z,14.40
2019-02-27T12:58:36.868Z,14.20
2019-02-27T13:01:06.988Z,14.20
2019-02-27T13:03:35.973Z,14.30
2019-02-27T13:06:05.164Z,14.30
2019-02-27T13:08:34.010Z,14.30
2019-02-27T13:11:05.245Z,14.30
2019-02-27T13:13:33.548Z,14.20
2019-02-27T13:16:02.514Z,14.10
2019-02-27T13:18:32.054Z,14.20
2019-02-27T13:21:01.658Z,14.20
2019-02-27T13:23:30.642Z,14.20
2019-02-27T13:26:00.432Z,14.20
2019-02-27T13:28:30.167Z,14.20
2019-02-27T13:30:59.003Z,14.00
2019-02-27T13:33:27.851Z,13.90
2019-02-27T13:35:59.609Z,13.90
2019-02-27T13:38:27.765Z,14.00
2019-02-27T13:40:56.758Z,14.00
2019-02-27T13:43:27.121Z,14.00
2019-02-27T13:45:56.309Z,14.00
2019-02-27T13:48:28.761Z,14.00
2019-02-27T13:50:59.333Z,13.90
2019-02-27T13:53:28.200Z,13.90
2019-02-27T13:55:57.086Z,14.00
2019-02-27T13:58:26.091Z,13.90
2019-02-27T14:00:55.090Z,13.90
2019-02-27T14:03:29.964Z,13.90
2019-02-27T14:06:00.472Z,13.80
2019-02-27T14:08:32.171Z,13.80
2019-02-27T14:11:00.271Z,13.80
2019-02-27T14:13:30.791Z,13.80
2019-02-27T14:16:00.833Z,13.80
2019-02-27T14:18:30.708Z,13.80
2019-02-27T14:21:01.699Z,13.70
2019-02-27T14:23:30.286Z,13.60
2019-02-27T14:25:59.250Z,13.70
2019-02-27T14:28:28.164Z,13.70
2019-02-27T14:30:56.994Z,13.60
2019-02-27T14:33:25.916Z,13.60
2019-02-27T14:35:54.782Z,13.60
2019-02-27T14:38:23.630Z,13.60
2019-02-27T14:40:55.932Z,13.50
2019-02-27T14:43:27.204Z,13.50
2019-02-27T14:45:55.497Z,13.40
2019-02-27T14:48:30.367Z,13.40
2019-02-27T14:50:59.403Z,13.30
2019-02-27T14:53:34.545Z,13.20
2019-02-27T14:56:10.309Z,13.20
2019-02-27T14:58:39.168Z,13.20
2019-02-27T15:01:16.835Z,13.10
2019-02-27T15:03:45.791Z,13.00
2019-02-27T15:06:15.921Z,13.00
2019-02-27T15:08:57.972Z,12.90
2019-02-27T15:11:22.010Z,12.90
2019-02-27T15:13:50.961Z,12.80
2019-02-27T15:16:21.786Z,12.70
2019-02-27T15:18:55.109Z,12.70
2019-02-27T15:21:20.936Z,12.60
2019-02-27T15:23:49.850Z,12.50
2019-02-27T15:26:18.800Z,12.50
2019-02-27T15:28:49.841Z,12.40
2019-02-27T15:31:21.324Z,12.30
2019-02-27T15:33:49.553Z,12.30
2019-02-27T15:36:18.622Z,12.20
2019-02-27T15:38:47.570Z,12.10
2019-02-27T15:41:16.492Z,12.10
2019-02-27T15:43:45.400Z,12.00
2019-02-27T15:46:14.550Z,11.90
2019-02-27T15:48:49.316Z,11.70
2019-02-27T15:51:18.660Z,11.60
2019-02-27T15:53:50.003Z,11.50
2019-02-27T15:56:18.343Z,11.40
2019-02-27T15:58:47.218Z,11.30
2019-02-27T16:01:16.146Z,11.10
2019-02-27T16:03:46.578Z,11.00
2019-02-27T16:06:15.754Z,10.70
2019-02-27T16:08:44.596Z,10.50
2019-02-27T16:11:14.045Z,10.30
2019-02-27T16:13:44.070Z,10.20
2019-02-27T16:16:13.034Z,10.10
2019-02-27T16:18:41.858Z,9.90
2019-02-27T16:21:12.106Z,9.80
2019-02-27T16:23:41.130Z,9.70
2019-02-27T16:26:10.069Z,9.50
2019-02-27T16:28:38.983Z,9.30
2019-02-27T16:31:07.992Z,9.10
2019-02-27T16:33:36.911Z,9.00
2019-02-27T16:36:05.900Z,9.20
2019-02-27T16:38:34.859Z,8.70
2019-02-27T16:41:03.962Z,8.40
2019-02-27T16:43:33.006Z,7.80
2019-02-27T16:46:01.934Z,7.80
2019-02-27T16:48:31.037Z,7.70
2019-02-27T16:51:01.409Z,7.40
2019-02-27T16:53:30.303Z,7.40
2019-02-27T16:55:59.151Z,6.90
2019-02-27T16:58:32.647Z,6.60
2019-02-27T17:01:02.066Z,6.50
2019-02-27T17:03:30.955Z,6.20
2019-02-27T17:05:59.894Z,6.10
2019-02-27T17:08:33.031Z,6.10
2019-02-27T17:11:02.065Z,5.50
2019-02-27T17:13:30.975Z,5.40
2019-02-27T17:15:59.918Z,5.20
2019-02-27T17:18:29.317Z,4.70
2019-02-27T17:20:58.300Z,4.50
2019-02-27T17:23:27.199Z,4.50
2019-02-27T17:25:56.060Z,4.20
2019-02-27T17:28:24.961Z,4.20
2019-02-27T17:30:53.858Z,4.00
2019-02-27T17:33:22.770Z,4.00
2019-02-27T17:35:53.097Z,3.50
2019-02-27T17:38:22.150Z,3.40
2019-02-27T17:40:52.469Z,3.70
2019-02-27T17:43:21.952Z,3.30
2019-02-27T17:45:51.179Z,3.20
2019-02-27T17:48:20.263Z,3.40
2019-02-27T17:50:49.112Z,2.90
2019-02-27T17:53:20.416Z,3.10
2019-02-27T17:55:48.829Z,2.70
2019-02-27T17:58:23.619Z,2.80
2019-02-27T18:00:55.494Z,2.50
2019-02-27T18:03:25.050Z,2.80
2019-02-27T18:05:56.325Z,2.40
2019-02-27T18:08:24.708Z,2.40
2019-02-27T18:10:53.669Z,2.40
2019-02-27T18:13:22.545Z,2.20
2019-02-27T18:15:53.200Z,2.20
2019-02-27T18:18:25.112Z,2.20
2019-02-27T18:20:56.755Z,2.10
2019-02-27T18:23:25.282Z,2.30
2019-02-27T18:25:54.878Z,1.90
2019-02-27T18:28:23.810Z,1.90
2019-02-27T18:30:53.698Z,1.90
2019-02-27T18:33:22.911Z,1.80
2019-02-27T18:35:51.970Z,1.80
2019-02-27T18:38:37.786Z,1.80
2019-02-27T18:41:06.645Z,1.70
2019-02-27T18:43:35.930Z,1.60
2019-02-27T18:46:05.091Z,1.50
2019-02-27T18:48:33.992Z,1.40
2019-02-27T18:51:02.891Z,1.50
2019-02-27T18:53:32.348Z,1.40
2019-02-27T18:56:02.659Z,1.30
2019-02-27T18:58:31.772Z,1.40
2019-02-27T19:01:00.844Z,1.80
2019-02-27T19:03:29.778Z,1.40
2019-02-27T19:05:58.858Z,1.50
2019-02-27T19:08:30.848Z,1.40
2019-02-27T19:10:59.768Z,1.30
2019-02-27T19:13:31.708Z,1.40
2019-02-27T19:15:59.604Z,1.50
2019-02-27T19:18:28.694Z,1.20
2019-02-27T19:20:59.309Z,1.00
2019-02-27T19:23:28.367Z,1.10
2019-02-27T19:25:57.360Z,0.90
2019-02-27T19:28:26.274Z,1.00
2019-02-27T19:30:55.277Z,1.20
2019-02-27T19:33:24.264Z,0.80
2019-02-27T19:35:55.832Z,0.90
2019-02-27T19:38:23.993Z,0.70
2019-02-27T19:40:53.035Z,0.90
2019-02-27T19:43:21.913Z,1.00
2019-02-27T19:45:50.863Z,1.10
2019-02-27T19:48:19.823Z,0.90
2019-02-27T19:50:48.893Z,0.90
2019-02-27T19:53:17.826Z,1.00
2019-02-27T19:55:46.853Z,0.80
2019-02-27T19:58:18.073Z,0.90
2019-02-27T20:00:49.440Z,0.80
2019-02-27T20:03:17.159Z,0.90
2019-02-27T20:05:46.174Z,0.80
2019-02-27T20:08:15.083Z,0.90
2019-02-27T20:10:44.405Z,0.70
2019-02-27T20:13:13.488Z,0.50
2019-02-27T20:15:45.675Z,0.70
2019-02-27T20:18:14.078Z,0.70
2019-02-27T20:20:43.301Z,0.80
2019-02-27T20:23:12.303Z,0.80
2019-02-27T20:25:44.197Z,0.80
2019-02-27T20:28:12.017Z,0.90
2019-02-27T20:30:40.992Z,0.60
2019-02-27T20:33:09.915Z,0.60
2019-02-27T20:35:38.893Z,0.60
2019-02-27T20:38:07.866Z,0.50
2019-02-27T20:40:36.853Z,0.40
2019-02-27T20:43:07.908Z,0.80
2019-02-27T20:45:36.871Z,0.50
2019-02-27T20:48:05.894Z,0.50
2019-02-27T20:50:37.374Z,0.50
2019-02-27T20:53:06.646Z,0.50
2019-02-27T20:55:35.612Z,0.50
2019-02-27T20:58:04.602Z,0.50
2019-02-27T21:00:36.509Z,0.50
2019-02-27T21:03:04.270Z,0.40
2019-02-27T21:05:33.692Z,0.60
2019-02-27T21:08:02.729Z,0.60
2019-02-27T21:10:31.959Z,0.60
2019-02-27T21:13:00.875Z,0.60
2019-02-27T21:15:32.563Z,0.60
2019-02-27T21:18:00.591Z,0.60
2019-02-27T21:20:29.628Z,0.60
2019-02-27T21:22:59.987Z,0.50
2019-02-27T21:25:29.590Z,0.30
2019-02-27T21:27:58.503Z,0.30
2019-02-27T21:30:27.437Z,0.50
2019-02-27T21:32:56.252Z,0.30
2019-02-27T21:35:28.874Z,0.30
2019-02-27T21:37:55.678Z,0.50
2019-02-27T21:40:24.661Z,0.50
2019-02-27T21:42:53.538Z,0.50
2019-02-27T21:45:22.575Z,0.50
2019-02-27T21:47:52.746Z,0.40
2019-02-27T21:50:22.119Z,0.60
2019-02-27T21:52:54.307Z,0.90
2019-02-27T21:55:22.131Z,1.00
2019-02-27T21:57:51.184Z,1.30
2019-02-27T22:00:21.996Z,1.50
2019-02-27T22:02:51.007Z,1.60
2019-02-27T22:05:20.050Z,1.50
2019-02-27T22:07:49.103Z,1.40
2019-02-27T22:10:19.729Z,1.40
2019-02-27T22:12:48.907Z,1.60
2019-02-27T22:15:23.439Z,1.60
2019-02-27T22:17:52.369Z,1.80
2019-02-27T22:20:21.344Z,1.20
2019-02-27T22:22:50.410Z,1.50
2019-02-27T22:25:19.318Z,1.40
2019-02-27T22:27:48.314Z,1.20
2019-02-27T22:30:17.637Z,1.30
2019-02-27T22:32:48.074Z,1.30
2019-02-27T22:35:17.269Z,1.40
2019-02-27T22:37:51.322Z,1.50
2019-02-27T22:40:17.091Z,1.80
2019-02-27T22:42:48.464Z,2.40
2019-02-27T22:45:17.942Z,2.40
2019-02-27T22:47:46.848Z,2.80
2019-02-27T22:50:16.301Z,3.50
2019-02-27T22:52:45.357Z,3.80
2019-02-27T22:55:15.550Z,4.30
2019-02-27T22:57:44.533Z,4.30
2019-02-27T23:00:43.100Z,4.90
2019-02-27T23:03:10.821Z,5.10
2019-02-27T23:05:39.809Z,5.10
2019-02-27T23:08:08.788Z,5.10
2019-02-27T23:10:37.722Z,5.10
2019-02-27T23:13:12.454Z,5.10
2019-02-27T23:15:39.198Z,5.30
2019-02-27T23:58:31.399Z,2.40
